createdAt,value
2017-06-26T10:48:46.581Z,125280
2017-06-26T10:49:47.986Z,122304
2017-06-26T10:51:09.484Z,122848
2017-06-26T10:52:10.886Z,123648
2017-06-26T10:53:32.386Z,9680
2017-06-26T10:54:33.789Z,14232
2017-06-26T10:55:55.658Z,49536
2017-06-26T10:56:57.067Z,123488
2017-06-26T10:58:18.604Z,126560
2017-06-26T10:59:21.172Z,121312
2017-06-26T11:00:43.975Z,119584
2017-06-26T11:01:45.386Z,115584
2017-06-26T11:03:07.224Z,22816
2017-06-26T11:04:08.637Z,104480
2017-06-26T11:05:30.139Z,5612
2017-06-26T11:10:50.770Z,43200
2017-06-26T11:11:52.977Z,121376
2017-06-26T11:13:14.633Z,118656
2017-06-26T11:14:16.053Z,122816
2017-06-26T11:15:38.712Z,122880
2017-06-26T11:16:41.065Z,120448
2017-06-26T11:18:02.877Z,116160
2017-06-26T12:14:02.194Z,15616
2017-06-26T12:15:04.159Z,140160
2017-06-26T12:16:25.841Z,56480
2017-06-26T12:23:23.367Z,48
2017-06-26T12:24:24.767Z,40
2017-06-26T12:25:46.486Z,32
2017-06-26T12:26:48.540Z,24
2017-06-26T12:28:10.263Z,24
2017-06-26T12:29:11.663Z,20
2017-06-26T12:30:34.580Z,20
2017-06-26T12:31:35.986Z,12
2017-06-26T12:32:58.720Z,12
2017-06-26T12:34:00.911Z,12
2017-06-26T12:35:23.760Z,16
2017-06-26T12:36:26.111Z,20
2017-06-26T12:37:48.180Z,24
2017-06-26T12:38:49.702Z,24
2017-06-26T12:40:13.371Z,24
2017-06-26T12:41:14.765Z,32
2017-06-26T12:42:36.266Z,32
2017-06-26T12:43:37.666Z,20
2017-06-26T12:45:00.831Z,40
2017-06-26T12:46:02.234Z,44
2017-06-26T12:47:23.808Z,24
2017-06-26T12:48:25.900Z,20
2017-06-26T12:49:47.582Z,20
2017-06-26T12:56:30.776Z,360
2017-06-26T12:57:32.171Z,392
2017-06-26T13:03:35.182Z,668
2017-06-26T13:04:36.578Z,708
2017-06-26T13:05:58.355Z,684
2017-06-26T13:06:59.747Z,704
2017-06-26T13:08:21.502Z,664
2017-06-26T13:09:22.900Z,552
2017-06-26T13:10:45.841Z,576
2017-06-26T13:11:47.325Z,648
2017-06-26T13:13:09.067Z,380
2017-06-26T13:14:10.458Z,348
2017-06-26T13:15:32.212Z,352
2017-06-26T13:16:33.606Z,360
2017-06-26T13:17:55.662Z,368
2017-06-26T13:18:57.064Z,368
2017-06-26T13:20:18.829Z,352
2017-06-26T13:21:20.225Z,360
2017-06-26T13:22:42.625Z,400
2017-06-26T13:23:44.021Z,412
2017-06-26T13:25:06.956Z,400
2017-06-26T13:27:25.238Z,640
2017-06-26T13:27:49.502Z,692
2017-06-26T13:28:50.894Z,740
2017-06-26T13:30:14.760Z,884
2017-06-26T13:31:16.154Z,96
2017-06-26T13:32:38.917Z,484
2017-06-26T13:38:45.365Z,496
2017-06-26T13:39:46.759Z,536
2017-06-26T13:41:08.549Z,396
2017-06-26T13:42:09.944Z,456
2017-06-26T13:43:31.693Z,376
2017-06-26T13:44:33.088Z,488
2017-06-26T13:45:57.118Z,464
2017-06-26T13:47:12.580Z,436
2017-06-26T13:47:39.003Z,508
2017-06-26T13:48:40.400Z,340
2017-06-26T13:50:02.152Z,224
2017-06-26T13:51:03.547Z,256
2017-06-26T13:52:28.194Z,216
2017-06-26T13:53:29.583Z,304
2017-06-26T13:54:30.975Z,460
2017-06-26T13:55:32.373Z,560
2017-06-26T13:56:33.766Z,560
2017-06-26T13:57:35.164Z,596
2017-06-26T13:58:36.560Z,528
2017-06-26T13:59:37.960Z,340
2017-06-26T14:00:40.146Z,360
2017-06-26T14:01:40.697Z,428
2017-06-26T14:02:42.137Z,312
2017-06-26T14:03:43.726Z,376
2017-06-26T14:04:45.116Z,432
2017-06-26T14:05:46.515Z,316
2017-06-26T14:06:48.755Z,296
2017-06-26T14:07:50.150Z,280
2017-06-26T14:08:51.538Z,348
2017-06-26T14:09:53.534Z,336
2017-06-26T14:10:54.932Z,400
2017-06-26T14:11:56.326Z,476
2017-06-26T14:12:57.723Z,516
2017-06-26T14:13:59.795Z,420
2017-06-26T14:15:01.186Z,448
2017-06-26T14:16:02.581Z,448
2017-06-26T14:17:03.975Z,424
2017-06-26T14:18:05.374Z,392
2017-06-26T14:19:06.770Z,356
2017-06-26T14:20:08.265Z,512
2017-06-26T14:21:09.662Z,496
2017-06-26T14:22:11.057Z,496
2017-06-26T14:23:12.449Z,572
2017-06-26T14:24:13.849Z,488
2017-06-26T14:25:15.243Z,508
2017-06-26T14:26:17.378Z,520
2017-06-26T14:27:18.771Z,552
2017-06-26T14:28:20.173Z,512
2017-06-26T14:29:21.565Z,464
2017-06-26T14:30:22.959Z,460
2017-06-26T14:31:24.354Z,416
2017-06-26T14:32:25.751Z,408
2017-06-26T14:33:27.150Z,396
2017-06-26T14:34:30.156Z,488
2017-06-26T14:35:30.623Z,580
2017-06-26T14:36:32.018Z,528
2017-06-26T14:37:33.406Z,616
2017-06-26T14:38:34.803Z,580
2017-06-26T14:39:36.204Z,564
2017-06-26T14:40:37.602Z,508
2017-06-26T14:41:39.798Z,528
2017-06-26T14:42:41.885Z,488
2017-06-26T14:43:43.275Z,480
2017-06-26T14:44:44.669Z,444
2017-06-26T14:45:46.742Z,392
2017-06-26T14:46:44.774Z,460
2017-06-26T14:56:36.966Z,708
2017-06-26T14:57:38.362Z,644
2017-06-26T14:59:00.749Z,636
2017-06-26T15:00:02.143Z,680
2017-06-26T15:01:23.667Z,740
2017-06-26T15:02:25.805Z,488
2017-06-26T15:03:47.872Z,768
2017-06-26T15:04:49.273Z,712
2017-06-26T15:06:11.860Z,736
2017-06-26T15:07:12.253Z,768
2017-06-26T15:08:33.777Z,776
2017-06-26T15:09:35.169Z,844
2017-06-26T15:10:58.318Z,708
2017-06-26T15:11:59.709Z,676
2017-06-26T15:13:21.297Z,656
2017-06-26T15:14:22.688Z,628
2017-06-26T15:15:45.343Z,656
2017-06-26T15:16:46.748Z,676
2017-06-26T15:18:08.993Z,728
2017-06-26T15:19:11.210Z,720
2017-06-26T15:20:32.922Z,644
2017-06-26T15:21:34.313Z,676
2017-06-26T15:22:56.991Z,300
2017-06-26T15:23:58.381Z,292
2017-06-26T15:25:21.386Z,296
2017-06-26T15:26:23.042Z,304
2017-06-26T15:27:45.495Z,232
2017-06-26T15:28:47.731Z,292
2017-06-26T15:30:09.235Z,288
2017-06-26T15:31:10.623Z,284
2017-06-26T15:32:32.746Z,288
2017-06-26T15:33:34.141Z,284
2017-06-26T15:34:55.859Z,284
2017-06-26T15:35:58.094Z,240
2017-06-26T15:37:19.651Z,300
2017-06-26T15:38:21.044Z,256
2017-06-26T15:39:43.002Z,252
2017-06-26T15:40:44.417Z,264
2017-06-26T15:42:05.944Z,400
2017-06-26T15:43:07.337Z,404
2017-06-26T15:44:30.812Z,252
2017-06-26T15:45:32.208Z,200
2017-06-26T15:46:54.159Z,180
2017-06-26T15:47:55.555Z,180
2017-06-26T15:49:17.263Z,204
2017-06-26T15:50:19.309Z,216
2017-06-26T15:51:41.033Z,236
2017-06-26T15:52:42.430Z,320
2017-06-26T15:54:04.395Z,320
2017-06-26T15:55:05.788Z,364
2017-06-26T15:56:27.338Z,380
2017-06-26T15:57:28.732Z,360
2017-06-26T15:58:50.500Z,392
2017-06-26T15:59:52.658Z,364
2017-06-26T16:01:15.406Z,236
2017-06-26T16:02:16.799Z,244
2017-06-26T16:03:38.347Z,220
